Millville, Massachusetts
Current Conditions -  °F | °C
As of 12:55 AM on Saturday 20 Dec 2014 (Local Time) from KSFZ Reporting Station
Clear Clear  
Wind Chill: 17°   Ceiling: Unl
Heat Index: 23°   Visibility: 10mi
Dew Point: 14°   Wind: 5mph
Humidity: 68%   Direction: 320°NW
Pressure: 30.13"   Gusts: NA
Location:  42.03°N, 71.58°W
Report Text: KSFZ 200555Z 32004KT 10SM CLR M05/M10 A3013 RMK AO1 11010 21050 52014
Loading
Personal Weather Stations






























Interactive Weather Map New forecast layout! Learn more

10-Day Weather Forecast

Advertisements
Track Severe Weather on mobile